createdAt,value
2023-02-11T00:01:28.912Z,24.70
2023-02-11T00:03:58.782Z,24.69
2023-02-11T00:06:29.185Z,24.68
2023-02-11T00:08:57.859Z,24.77
2023-02-11T00:11:30.710Z,24.80
2023-02-11T00:14:04.546Z,24.73
2023-02-11T00:16:33.321Z,24.93
2023-02-11T00:19:02.959Z,25.46
2023-02-11T00:21:31.799Z,24.91
2023-02-11T00:24:02.435Z,24.98
2023-02-11T00:26:33.809Z,25.34
2023-02-11T00:29:02.768Z,24.97
2023-02-11T00:31:34.213Z,25.25
2023-02-11T00:34:02.621Z,25.24
2023-02-11T00:36:31.587Z,25.31
2023-02-11T00:39:00.271Z,25.25
2023-02-11T00:41:30.172Z,25.11
2023-02-11T00:44:01.748Z,25.10
2023-02-11T00:46:30.532Z,25.40
2023-02-11T00:48:58.808Z,25.41
2023-02-11T00:51:28.778Z,25.61
2023-02-11T00:53:57.518Z,26.56
2023-02-11T00:56:26.031Z,26.17
2023-02-11T00:58:54.425Z,25.41
2023-02-11T01:01:23.554Z,26.06
2023-02-11T01:03:51.905Z,27.12
2023-02-11T01:06:20.660Z,25.65
2023-02-11T01:08:48.824Z,27.42
2023-02-11T01:11:20.065Z,25.66
2023-02-11T01:13:49.585Z,26.05
2023-02-11T01:16:19.002Z,27.30
2023-02-11T01:18:47.439Z,25.55
2023-02-11T01:21:18.635Z,27.04
2023-02-11T01:23:46.853Z,27.71
2023-02-11T01:26:15.373Z,26.99
2023-02-11T01:28:43.719Z,26.11
2023-02-11T01:31:12.330Z,26.00
2023-02-11T01:33:40.777Z,26.43
2023-02-11T01:36:09.546Z,26.16
2023-02-11T01:38:38.127Z,27.32
2023-02-11T01:41:09.431Z,26.38
2023-02-11T01:43:40.815Z,26.33
2023-02-11T01:46:31.757Z,25.98
2023-02-11T01:49:13.418Z,26.80
2023-02-11T01:51:57.148Z,25.98
2023-02-11T01:54:46.810Z,25.79
2023-02-11T01:57:25.202Z,25.99
2023-02-11T02:00:38.467Z,28.06
2023-02-11T02:03:11.617Z,26.03
2023-02-11T02:05:52.457Z,26.70
2023-02-11T02:08:27.910Z,26.32
2023-02-11T02:10:56.785Z,26.73
2023-02-11T02:13:26.205Z,27.66
2023-02-11T02:15:55.326Z,26.46
2023-02-11T02:18:52.561Z,26.90
2023-02-11T02:21:54.518Z,26.71
2023-02-11T02:24:50.893Z,27.79
2023-02-11T02:27:25.653Z,26.84
2023-02-11T02:30:24.701Z,28.11
2023-02-11T02:32:56.615Z,27.15
2023-02-11T02:35:55.913Z,27.46
2023-02-11T02:38:57.992Z,28.69
2023-02-11T02:41:31.992Z,28.17
2023-02-11T02:44:00.596Z,27.98
2023-02-11T02:46:47.260Z,27.79
2023-02-11T02:49:17.273Z,27.96
2023-02-11T02:52:03.886Z,28.18
2023-02-11T02:54:44.390Z,28.21
2023-02-11T02:57:34.505Z,28.42
2023-02-11T03:00:11.639Z,28.25
2023-02-11T03:03:04.818Z,27.61
2023-02-11T03:05:42.874Z,27.87
2023-02-11T03:08:22.527Z,27.40
2023-02-11T03:10:52.288Z,27.13
2023-02-11T03:13:24.617Z,27.95
2023-02-11T03:15:55.567Z,27.62
2023-02-11T03:18:26.995Z,27.53
2023-02-11T03:20:57.924Z,26.87
2023-02-11T03:23:41.872Z,27.39
2023-02-11T03:26:13.235Z,27.00
2023-02-11T03:28:50.271Z,27.25
2023-02-11T03:31:42.595Z,27.45
2023-02-11T03:34:19.649Z,27.01
2023-02-11T03:37:15.692Z,27.23
2023-02-11T03:39:52.156Z,27.96
2023-02-11T03:42:23.475Z,26.76
2023-02-11T03:44:56.778Z,27.16
2023-02-11T03:47:27.838Z,26.75
2023-02-11T03:49:58.107Z,26.85
2023-02-11T03:52:26.817Z,26.87
2023-02-11T03:54:57.946Z,26.85
2023-02-11T03:57:26.125Z,26.90
2023-02-11T03:59:57.215Z,27.83
2023-02-11T04:02:28.942Z,27.42
2023-02-11T04:04:58.053Z,27.99
2023-02-11T04:07:26.448Z,27.16
2023-02-11T04:09:54.975Z,28.09
2023-02-11T04:12:23.293Z,26.52
2023-02-11T04:14:51.851Z,26.24
2023-02-11T04:17:19.918Z,25.96
2023-02-11T04:19:48.329Z,26.14
2023-02-11T04:22:16.478Z,25.72
2023-02-11T04:24:44.865Z,25.45
2023-02-11T04:27:13.101Z,25.46
2023-02-11T04:29:41.621Z,25.53
2023-02-11T04:32:11.189Z,25.38
2023-02-11T04:34:40.078Z,25.40
2023-02-11T04:37:08.642Z,25.29
2023-02-11T04:39:37.185Z,25.17
2023-02-11T04:42:05.761Z,25.22
2023-02-11T04:44:34.140Z,25.32
2023-02-11T04:47:02.332Z,25.16
2023-02-11T04:49:30.769Z,25.23
2023-02-11T04:51:58.880Z,25.21
2023-02-11T04:54:27.391Z,25.19
2023-02-11T04:56:55.575Z,25.26
2023-02-11T04:59:24.109Z,25.29
2023-02-11T05:01:52.335Z,25.30
2023-02-11T05:04:20.864Z,25.30
2023-02-11T05:06:49.062Z,25.32
2023-02-11T05:09:17.989Z,25.78
2023-02-11T05:11:46.110Z,25.44
2023-02-11T05:14:14.481Z,25.18
2023-02-11T05:16:42.644Z,24.90
2023-02-11T05:19:11.419Z,24.99
2023-02-11T05:21:40.122Z,24.87
2023-02-11T05:24:10.786Z,24.80
2023-02-11T05:26:38.934Z,25.43
2023-02-11T05:29:07.550Z,24.59
2023-02-11T05:31:35.659Z,24.68
2023-02-11T05:34:04.329Z,24.48
2023-02-11T05:36:33.612Z,24.48
2023-02-11T05:39:02.088Z,24.41
2023-02-11T05:41:30.233Z,24.31
2023-02-11T05:43:58.858Z,24.27
2023-02-11T05:46:27.160Z,24.09
2023-02-11T05:48:56.971Z,24.02
2023-02-11T05:51:25.483Z,24.46
2023-02-11T05:53:54.175Z,24.14
2023-02-11T05:56:22.301Z,24.08
2023-02-11T05:58:50.732Z,23.90
2023-02-11T06:01:18.876Z,23.99
2023-02-11T06:03:50.232Z,24.02
2023-02-11T06:06:18.514Z,23.79
2023-02-11T06:08:46.919Z,24.10
2023-02-11T06:11:16.458Z,23.46
2023-02-11T06:13:44.889Z,23.65
2023-02-11T06:16:13.070Z,23.51
2023-02-11T06:18:41.438Z,23.62
2023-02-11T06:21:12.727Z,23.53
2023-02-11T06:23:41.120Z,23.66
2023-02-11T06:26:10.987Z,23.47
2023-02-11T06:28:41.929Z,23.63
2023-02-11T06:31:12.038Z,23.36
2023-02-11T06:33:40.789Z,23.24
2023-02-11T06:36:14.951Z,23.23
2023-02-11T06:38:43.472Z,23.15
2023-02-11T06:41:13.779Z,23.04
2023-02-11T06:43:42.765Z,23.24
2023-02-11T06:46:11.043Z,23.41
2023-02-11T06:48:39.469Z,23.04
2023-02-11T06:51:10.142Z,22.99
2023-02-11T06:53:40.563Z,22.70
2023-02-11T06:56:11.635Z,23.00
2023-02-11T06:58:40.793Z,23.17
2023-02-11T07:01:11.871Z,22.87
2023-02-11T07:03:43.716Z,23.11
2023-02-11T07:06:14.999Z,23.14
2023-02-11T07:08:46.066Z,23.32
2023-02-11T07:11:19.632Z,23.15
2023-02-11T07:13:48.419Z,23.24
2023-02-11T07:16:18.220Z,23.61
2023-02-11T07:18:47.632Z,23.55
2023-02-11T07:21:18.296Z,23.49
2023-02-11T07:23:48.727Z,23.58
2023-02-11T07:26:20.264Z,23.60
2023-02-11T07:28:49.143Z,23.89
2023-02-11T07:31:21.148Z,23.87
2023-02-11T07:33:49.982Z,23.80
2023-02-11T07:36:18.221Z,23.90
2023-02-11T07:38:47.369Z,23.94
2023-02-11T07:41:18.879Z,23.96
2023-02-11T07:43:47.959Z,23.74
2023-02-11T07:46:25.001Z,23.96
2023-02-11T07:48:54.240Z,23.87
2023-02-11T07:51:27.657Z,23.98
2023-02-11T07:53:58.632Z,24.10
2023-02-11T07:56:27.578Z,23.96
2023-02-11T07:58:59.811Z,24.02
2023-02-11T08:01:28.904Z,24.14
2023-02-11T08:03:59.180Z,24.03
2023-02-11T08:06:29.334Z,24.18
2023-02-11T08:08:58.588Z,24.09
2023-02-11T08:11:28.963Z,24.07
2023-02-11T08:13:57.416Z,24.41
2023-02-11T08:16:34.189Z,24.33
2023-02-11T08:19:06.277Z,24.28
2023-02-11T08:21:34.387Z,24.39
2023-02-11T08:24:03.990Z,24.29
2023-02-11T08:26:34.862Z,24.33
2023-02-11T08:29:08.301Z,24.33
2023-02-11T08:31:38.710Z,24.32
2023-02-11T08:34:07.516Z,24.26
2023-02-11T08:36:36.984Z,24.36
2023-02-11T08:39:19.306Z,24.37
2023-02-11T08:41:53.982Z,24.40
2023-02-11T08:44:23.249Z,24.34
2023-02-11T08:46:52.073Z,24.35
2023-02-11T08:49:20.684Z,24.31
2023-02-11T08:51:49.843Z,24.31
2023-02-11T08:54:18.273Z,24.59
2023-02-11T08:56:46.653Z,24.29
2023-02-11T08:59:15.698Z,24.05
2023-02-11T09:01:44.640Z,24.21
2023-02-11T09:04:13.751Z,24.05
2023-02-11T09:06:41.957Z,24.04
2023-02-11T09:09:13.737Z,23.97
2023-02-11T09:11:43.462Z,23.69
2023-02-11T09:14:21.103Z,23.74
2023-02-11T09:16:49.658Z,23.56
2023-02-11T09:19:18.666Z,23.76
2023-02-11T09:21:47.547Z,23.71
2023-02-11T09:24:16.051Z,23.67
2023-02-11T09:26:44.213Z,24.52
2023-02-11T09:29:13.379Z,23.42
2023-02-11T09:31:41.612Z,23.33
2023-02-11T09:34:11.307Z,23.42
2023-02-11T09:36:40.953Z,23.40
2023-02-11T09:39:17.275Z,23.44
2023-02-11T09:41:54.365Z,23.62
2023-02-11T09:44:26.842Z,23.65
2023-02-11T09:47:05.746Z,23.80
2023-02-11T09:49:45.317Z,23.79
2023-02-11T09:52:47.059Z,23.77
2023-02-11T09:55:19.698Z,23.99
2023-02-11T09:57:48.159Z,23.93
2023-02-11T10:00:28.239Z,23.90
2023-02-11T10:03:13.456Z,24.07
2023-02-11T10:05:56.984Z,24.04
2023-02-11T10:08:35.941Z,23.93
2023-02-11T10:11:52.447Z,23.74
2023-02-11T10:14:26.491Z,23.74
2023-02-11T10:17:09.281Z,23.84
2023-02-11T10:19:50.592Z,23.71
2023-02-11T10:22:33.774Z,23.62
2023-02-11T10:25:18.695Z,23.55
2023-02-11T10:27:47.650Z,23.65
2023-02-11T10:30:31.816Z,23.50
2023-02-11T10:33:25.302Z,23.47
2023-02-11T10:35:53.621Z,23.42
2023-02-11T10:38:22.280Z,23.41
2023-02-11T10:40:50.633Z,23.60
2023-02-11T10:43:21.729Z,23.52
2023-02-11T10:45:52.420Z,23.59
2023-02-11T10:48:47.084Z,23.67
2023-02-11T10:51:35.772Z,23.63
2023-02-11T10:54:24.989Z,23.90
2023-02-11T10:56:59.861Z,23.50
2023-02-11T10:59:31.162Z,23.48
2023-02-11T11:02:03.111Z,23.52
2023-02-11T11:04:34.292Z,23.30
2023-02-11T11:07:29.247Z,23.67
2023-02-11T11:10:03.077Z,23.55
2023-02-11T11:12:49.591Z,23.02
2023-02-11T11:15:18.984Z,22.93
2023-02-11T11:17:47.122Z,22.94
2023-02-11T11:20:19.161Z,23.00
2023-02-11T11:22:49.210Z,23.32
2023-02-11T11:25:46.217Z,23.21
2023-02-11T11:28:26.472Z,23.55
2023-02-11T11:30:56.437Z,23.56
2023-02-11T11:33:28.530Z,23.85
2023-02-11T11:36:20.347Z,23.72
2023-02-11T11:38:58.221Z,23.97
2023-02-11T11:41:26.698Z,24.14
2023-02-11T11:44:05.038Z,24.41
2023-02-11T11:46:36.292Z,24.63
2023-02-11T11:49:25.635Z,24.65
2023-02-11T11:52:31.333Z,24.77
2023-02-11T11:55:13.142Z,24.71
2023-02-11T11:57:42.664Z,24.57
2023-02-11T12:00:16.151Z,24.67
2023-02-11T12:03:18.804Z,24.73
2023-02-11T12:06:10.254Z,24.71
2023-02-11T12:09:08.052Z,24.73
2023-02-11T12:12:04.141Z,24.68
2023-02-11T12:14:48.266Z,24.78
2023-02-11T12:17:35.132Z,24.50
2023-02-11T12:20:24.106Z,24.64
2023-02-11T12:23:22.304Z,24.72
2023-02-11T12:26:11.157Z,24.46
2023-02-11T12:28:54.423Z,24.93
2023-02-11T12:31:40.101Z,24.78
2023-02-11T12:34:26.630Z,24.81
2023-02-11T12:37:16.515Z,24.93
2023-02-11T12:39:51.815Z,25.17
2023-02-11T12:43:10.968Z,25.39
2023-02-11T12:45:44.381Z,25.54
2023-02-11T12:48:44.012Z,25.72
2023-02-11T12:51:49.504Z,25.72
2023-02-11T12:54:23.514Z,25.72
2023-02-11T12:57:02.955Z,25.70
2023-02-11T12:59:55.535Z,25.59
2023-02-11T13:02:27.073Z,25.95
2023-02-11T13:04:58.656Z,25.85
2023-02-11T13:07:35.260Z,25.95
2023-02-11T13:10:32.954Z,25.96
2023-02-11T13:13:19.392Z,26.01
2023-02-11T13:15:52.509Z,25.95
2023-02-11T13:18:44.408Z,25.98
2023-02-11T13:21:15.748Z,26.22
2023-02-11T13:24:03.130Z,26.27
2023-02-11T13:27:21.335Z,26.09
2023-02-11T13:30:14.464Z,26.21
2023-02-11T13:32:55.871Z,26.44
2023-02-11T13:35:38.066Z,26.32
2023-02-11T13:38:25.497Z,26.36
2023-02-11T13:41:33.859Z,26.49
2023-02-11T13:44:06.031Z,26.29
2023-02-11T13:46:54.401Z,26.25
2023-02-11T13:49:31.549Z,26.45
2023-02-11T13:52:01.130Z,26.46
2023-02-11T13:54:37.877Z,26.39
2023-02-11T13:57:21.251Z,26.62
2023-02-11T13:59:52.717Z,26.60
2023-02-11T14:02:43.312Z,26.68
2023-02-11T14:05:44.866Z,26.70
2023-02-11T14:08:33.317Z,26.63
2023-02-11T14:11:33.617Z,26.62
2023-02-11T14:14:24.072Z,26.59
2023-02-11T14:16:58.464Z,26.56
2023-02-11T14:19:33.807Z,26.60
2023-02-11T14:22:26.852Z,26.45
2023-02-11T14:24:57.925Z,26.29
2023-02-11T14:27:29.401Z,26.17
2023-02-11T14:30:15.801Z,26.16
2023-02-11T14:33:05.864Z,26.07
2023-02-11T14:35:58.848Z,25.99
2023-02-11T14:38:46.246Z,26.03
2023-02-11T14:41:26.131Z,25.96
2023-02-11T14:44:04.469Z,25.97
2023-02-11T14:46:33.445Z,25.96
2023-02-11T14:49:04.043Z,25.93
2023-02-11T14:51:36.382Z,25.83
2023-02-11T14:54:21.699Z,25.89
2023-02-11T14:57:14.159Z,25.83
2023-02-11T15:00:02.874Z,25.86
2023-02-11T15:02:35.973Z,25.71
2023-02-11T15:05:26.348Z,25.78
2023-02-11T15:08:00.302Z,25.84
2023-02-11T15:10:32.051Z,25.93
2023-02-11T15:13:01.587Z,25.99
2023-02-11T15:15:32.246Z,25.95
2023-02-11T15:18:03.321Z,25.97
2023-02-11T15:20:36.112Z,26.11
2023-02-11T15:23:11.187Z,26.16
2023-02-11T15:25:51.326Z,26.18
2023-02-11T15:28:38.226Z,26.22
2023-02-11T15:31:16.149Z,26.12
2023-02-11T15:33:44.685Z,26.20
2023-02-11T15:36:14.894Z,26.14
2023-02-11T15:38:43.372Z,26.12
2023-02-11T15:41:36.440Z,26.16
2023-02-11T15:44:04.773Z,25.97
2023-02-11T15:46:38.585Z,25.85
2023-02-11T15:49:08.728Z,25.74
2023-02-11T15:51:39.026Z,25.71
2023-02-11T15:54:20.979Z,25.29
2023-02-11T15:56:55.726Z,25.30
2023-02-11T15:59:35.025Z,25.10
2023-02-11T16:02:17.662Z,25.15
2023-02-11T16:04:54.961Z,25.03
2023-02-11T16:07:42.377Z,25.03
2023-02-11T16:10:25.514Z,25.02
2023-02-11T16:12:55.604Z,25.07
2023-02-11T16:15:34.082Z,24.86
2023-02-11T16:18:05.614Z,24.83
2023-02-11T16:20:34.357Z,25.03
2023-02-11T16:23:03.948Z,24.89
2023-02-11T16:25:32.583Z,25.00
2023-02-11T16:28:01.719Z,24.66
2023-02-11T16:30:34.790Z,24.69
2023-02-11T16:33:04.493Z,24.78
2023-02-11T16:35:32.876Z,24.73
2023-02-11T16:38:01.614Z,24.88
2023-02-11T16:40:29.873Z,24.73
2023-02-11T16:42:58.797Z,24.29
2023-02-11T16:45:27.115Z,24.14
2023-02-11T16:47:55.765Z,24.31
2023-02-11T16:50:25.610Z,24.63
2023-02-11T16:52:54.604Z,24.54
2023-02-11T16:55:22.777Z,24.42
2023-02-11T16:57:51.404Z,24.59
2023-02-11T17:00:20.260Z,24.33
2023-02-11T17:02:48.812Z,24.41
2023-02-11T17:05:20.522Z,24.60
2023-02-11T17:07:50.032Z,24.50
2023-02-11T17:10:23.667Z,24.71
2023-02-11T17:12:53.576Z,24.39
2023-02-11T17:15:21.799Z,24.57
2023-02-11T17:17:50.379Z,24.51
2023-02-11T17:20:18.808Z,24.71
2023-02-11T17:22:47.647Z,24.63
2023-02-11T17:25:15.966Z,24.53
2023-02-11T17:27:44.639Z,24.56
2023-02-11T17:30:14.034Z,24.49
2023-02-11T17:32:42.549Z,24.43
2023-02-11T17:35:10.860Z,24.27
2023-02-11T17:37:39.349Z,24.23
2023-02-11T17:40:08.828Z,24.33
2023-02-11T17:42:37.229Z,24.25
2023-02-11T17:45:06.089Z,24.40
2023-02-11T17:47:35.639Z,24.32
2023-02-11T17:50:04.386Z,24.45
2023-02-11T17:52:33.077Z,24.56
2023-02-11T17:55:01.271Z,24.52
2023-02-11T17:57:29.799Z,24.50
2023-02-11T17:59:58.104Z,24.84
2023-02-11T18:02:26.707Z,24.77
2023-02-11T18:04:57.658Z,24.99
2023-02-11T18:07:26.891Z,24.82
2023-02-11T18:09:55.169Z,25.01
2023-02-11T18:12:26.865Z,25.14
2023-02-11T18:14:58.026Z,24.99
2023-02-11T18:17:26.830Z,25.13
2023-02-11T18:19:58.340Z,25.24
2023-02-11T18:22:26.989Z,25.14
2023-02-11T18:24:55.537Z,24.99
2023-02-11T18:27:24.350Z,25.06
2023-02-11T18:29:52.419Z,25.19
2023-02-11T18:32:21.089Z,25.00
2023-02-11T18:34:49.194Z,24.69
2023-02-11T18:37:17.655Z,24.67
2023-02-11T18:39:45.796Z,24.32
2023-02-11T18:42:14.359Z,24.26
2023-02-11T18:44:42.475Z,24.23
2023-02-11T18:47:11.184Z,24.21
2023-02-11T18:49:39.553Z,24.18
2023-02-11T18:52:08.183Z,24.46
2023-02-11T18:54:36.484Z,24.45
2023-02-11T18:57:05.395Z,24.45
2023-02-11T18:59:33.634Z,24.68
2023-02-11T19:02:02.264Z,24.93
2023-02-11T19:04:30.691Z,25.09
2023-02-11T19:07:03.323Z,24.97
2023-02-11T19:09:31.946Z,24.94
2023-02-11T19:12:02.216Z,25.33
2023-02-11T19:14:33.942Z,25.31
2023-02-11T19:17:05.552Z,25.46
2023-02-11T19:19:35.683Z,25.68
2023-02-11T19:22:10.010Z,25.70
2023-02-11T19:24:39.235Z,25.66
2023-02-11T19:27:08.235Z,25.85
2023-02-11T19:29:36.631Z,25.92
2023-02-11T19:32:06.569Z,25.93
2023-02-11T19:34:41.423Z,25.92
2023-02-11T19:37:12.944Z,26.00
2023-02-11T19:39:42.482Z,26.00
2023-02-11T19:42:11.851Z,25.82
2023-02-11T19:44:40.180Z,25.91
2023-02-11T19:47:10.489Z,25.70
2023-02-11T19:49:38.846Z,25.61
2023-02-11T19:52:07.445Z,25.81
2023-02-11T19:54:35.951Z,25.31
2023-02-11T19:57:04.551Z,25.21
2023-02-11T19:59:32.883Z,25.26
2023-02-11T20:02:01.915Z,25.44
2023-02-11T20:04:32.378Z,25.37
2023-02-11T20:07:01.025Z,25.43
2023-02-11T20:09:31.300Z,25.39
2023-02-11T20:12:00.075Z,25.46
2023-02-11T20:14:28.422Z,25.77
2023-02-11T20:16:57.090Z,25.69
2023-02-11T20:19:25.459Z,25.68
2023-02-11T20:21:56.061Z,25.83
2023-02-11T20:24:25.370Z,25.94
2023-02-11T20:26:57.207Z,25.76
2023-02-11T20:29:26.065Z,26.02
2023-02-11T20:31:55.176Z,25.99
2023-02-11T20:34:25.204Z,26.40
2023-02-11T20:36:54.400Z,25.89
2023-02-11T20:39:24.109Z,26.20
2023-02-11T20:41:54.079Z,26.16
2023-02-11T20:44:23.249Z,25.95
2023-02-11T20:46:54.468Z,26.31
2023-02-11T20:49:24.288Z,25.88
2023-02-11T20:51:54.108Z,25.72
2023-02-11T20:54:23.877Z,25.81
2023-02-11T20:56:54.122Z,25.52
2023-02-11T20:59:23.317Z,25.67
2023-02-11T21:01:54.342Z,25.53
2023-02-11T21:04:25.604Z,25.32
2023-02-11T21:06:59.578Z,25.64
2023-02-11T21:09:30.898Z,25.67
2023-02-11T21:12:00.820Z,25.73
2023-02-11T21:14:29.617Z,25.58
2023-02-11T21:16:58.782Z,25.66
2023-02-11T21:19:27.340Z,25.79
2023-02-11T21:21:57.505Z,25.96
2023-02-11T21:24:25.942Z,25.87
2023-02-11T21:26:54.933Z,25.87
2023-02-11T21:29:23.312Z,26.07
2023-02-11T21:31:51.991Z,25.89
2023-02-11T21:34:20.960Z,26.15
2023-02-11T21:36:51.417Z,26.14
2023-02-11T21:39:20.588Z,26.25
2023-02-11T21:41:49.583Z,26.39
2023-02-11T21:44:18.745Z,26.25
2023-02-11T21:46:47.430Z,26.48
2023-02-11T21:49:15.864Z,26.35
2023-02-11T21:51:44.454Z,26.42
2023-02-11T21:54:12.732Z,26.14
2023-02-11T21:56:41.720Z,26.09
2023-02-11T21:59:12.408Z,25.97
2023-02-11T22:01:41.316Z,25.91
2023-02-11T22:04:10.028Z,25.97
2023-02-11T22:06:39.334Z,25.90
2023-02-11T22:09:10.925Z,25.82
2023-02-11T22:11:40.062Z,25.99
2023-02-11T22:14:08.578Z,26.08
2023-02-11T22:16:37.245Z,25.84
2023-02-11T22:19:07.660Z,26.20
2023-02-11T22:21:36.317Z,25.96
2023-02-11T22:24:04.802Z,26.28
2023-02-11T22:26:33.548Z,26.27
2023-02-11T22:29:02.036Z,26.44
2023-02-11T22:31:33.429Z,26.52
2023-02-11T22:34:03.398Z,26.63
2023-02-11T22:36:34.707Z,26.59
2023-02-11T22:39:08.669Z,26.52
2023-02-11T22:41:41.146Z,26.69
2023-02-11T22:44:10.041Z,26.81
2023-02-11T22:46:38.849Z,26.79
2023-02-11T22:49:07.614Z,26.92
2023-02-11T22:51:36.537Z,26.84
2023-02-11T22:54:06.902Z,26.83
2023-02-11T22:56:35.518Z,26.89
2023-02-11T22:59:06.359Z,27.10
2023-02-11T23:01:35.388Z,27.10
2023-02-11T23:04:05.742Z,27.01
2023-02-11T23:06:35.044Z,27.08
2023-02-11T23:09:05.441Z,27.19
2023-02-11T23:11:34.535Z,27.18
2023-02-11T23:14:03.140Z,27.30
2023-02-11T23:16:34.248Z,27.33
2023-02-11T23:19:08.265Z,27.28
2023-02-11T23:21:38.803Z,27.27
2023-02-11T23:24:15.773Z,27.38
2023-02-11T23:26:44.687Z,27.29
2023-02-11T23:29:13.091Z,27.24
2023-02-11T23:31:45.436Z,27.42
2023-02-11T23:34:20.478Z,27.27
2023-02-11T23:36:48.967Z,27.25
2023-02-11T23:39:17.304Z,27.22
2023-02-11T23:41:46.421Z,27.32
2023-02-11T23:44:14.525Z,27.42
2023-02-11T23:46:43.016Z,27.27
2023-02-11T23:49:11.066Z,27.50
2023-02-11T23:51:39.551Z,27.32
2023-02-11T23:54:07.726Z,27.30
2023-02-11T23:56:37.804Z,27.41
2023-02-11T23:59:06.133Z,27.53
